createdAt,value
2022-09-30T00:02:04.584Z,12.93
2022-09-30T00:04:34.815Z,16.98
2022-09-30T00:07:05.292Z,12.02
2022-09-30T00:09:35.493Z,13.90
2022-09-30T00:12:05.872Z,12.25
2022-09-30T00:14:36.329Z,13.80
2022-09-30T00:17:06.352Z,15.13
2022-09-30T00:19:36.790Z,10.18
2022-09-30T00:22:07.171Z,10.40
2022-09-30T00:24:37.479Z,11.07
2022-09-30T00:27:07.707Z,14.25
2022-09-30T00:29:38.054Z,13.75
2022-09-30T00:32:08.662Z,13.20
2022-09-30T00:34:39.019Z,13.48
2022-09-30T00:37:09.412Z,16.45
2022-09-30T00:39:39.778Z,12.52
2022-09-30T00:42:15.257Z,9.80
2022-09-30T00:46:35.586Z,13.20
2022-09-30T00:49:15.304Z,14.95
2022-09-30T00:51:52.322Z,11.77
2022-09-30T00:54:27.242Z,14.60
2022-09-30T00:57:03.137Z,13.20
2022-09-30T00:59:41.400Z,18.15
2022-09-30T01:02:13.105Z,10.30
2022-09-30T01:04:44.674Z,12.73
2022-09-30T01:07:15.725Z,11.30
2022-09-30T01:09:47.221Z,8.65
2022-09-30T01:12:22.237Z,8.18
2022-09-30T01:14:55.567Z,9.43
2022-09-30T01:17:48.143Z,4.60
2022-09-30T01:23:43.193Z,5.70
2022-09-30T01:26:34.335Z,6.40
2022-09-30T01:29:13.151Z,6.55
2022-09-30T01:32:12.644Z,5.35
2022-09-30T01:35:10.045Z,2.97
2022-09-30T01:37:51.223Z,4.75
2022-09-30T01:40:34.878Z,2.67
2022-09-30T01:43:13.681Z,4.28
2022-09-30T01:45:57.303Z,5.95
2022-09-30T01:48:38.450Z,3.03
2022-09-30T01:51:08.777Z,6.97
2022-09-30T01:53:40.640Z,3.80
2022-09-30T01:56:37.797Z,4.75
2022-09-30T01:59:12.047Z,1.95
2022-09-30T02:02:00.921Z,3.15
2022-09-30T02:05:13.826Z,3.67
2022-09-30T02:10:29.478Z,3.40
2022-09-30T02:13:21.381Z,3.15
2022-09-30T02:15:55.109Z,7.10
2022-09-30T02:18:38.830Z,3.42
2022-09-30T02:21:10.978Z,2.70
2022-09-30T02:26:21.949Z,3.88
2022-09-30T02:29:01.444Z,5.25
2022-09-30T02:31:33.383Z,2.45
2022-09-30T02:34:05.543Z,3.38
2022-09-30T02:39:21.017Z,10.05
2022-09-30T02:41:55.732Z,7.80
2022-09-30T02:44:24.032Z,10.15
2022-09-30T02:46:52.380Z,8.38
2022-09-30T02:49:37.144Z,6.55
2022-09-30T02:52:16.257Z,8.38
2022-09-30T02:55:13.433Z,10.23
2022-09-30T02:57:58.359Z,17.33
2022-09-30T03:00:27.190Z,8.18
2022-09-30T03:03:01.350Z,11.77
2022-09-30T03:05:29.877Z,7.60
2022-09-30T03:07:58.197Z,11.00
2022-09-30T03:10:26.542Z,11.55
2022-09-30T03:13:08.372Z,16.38
2022-09-30T03:16:05.589Z,18.17
2022-09-30T03:18:37.442Z,14.80
2022-09-30T03:21:27.450Z,17.25
2022-09-30T03:24:21.625Z,15.00
2022-09-30T03:27:08.464Z,14.52
2022-09-30T03:30:02.586Z,14.50
2022-09-30T03:32:40.012Z,18.70
2022-09-30T03:35:31.175Z,12.82
2022-09-30T03:38:08.527Z,10.85
2022-09-30T03:40:50.077Z,8.18
2022-09-30T03:43:50.143Z,8.30
2022-09-30T03:46:27.752Z,12.32
2022-09-30T03:49:00.403Z,7.78
2022-09-30T03:51:30.081Z,11.07
2022-09-30T03:53:59.651Z,7.43
2022-09-30T03:56:29.529Z,7.45
2022-09-30T03:58:58.220Z,7.75
2022-09-30T04:01:26.335Z,7.45
2022-09-30T04:03:55.510Z,9.23
2022-09-30T04:06:25.380Z,6.68
2022-09-30T04:08:53.627Z,4.93
2022-09-30T04:11:21.908Z,6.93
2022-09-30T04:13:50.093Z,6.57
2022-09-30T04:16:18.163Z,5.55
2022-09-30T04:18:46.369Z,8.85
2022-09-30T04:21:15.898Z,5.32
2022-09-30T04:23:44.790Z,10.45
2022-09-30T04:26:14.895Z,10.02
2022-09-30T04:28:43.066Z,8.77
2022-09-30T04:31:13.105Z,10.32
2022-09-30T04:33:41.677Z,5.90
2022-09-30T04:36:11.041Z,13.73
2022-09-30T04:38:39.238Z,8.25
2022-09-30T04:41:08.257Z,5.85
2022-09-30T04:43:36.544Z,6.32
2022-09-30T04:46:04.714Z,4.75
2022-09-30T04:48:32.923Z,5.45
2022-09-30T04:51:01.243Z,8.55
2022-09-30T04:53:29.422Z,5.80
2022-09-30T04:56:02.077Z,8.52
2022-09-30T04:58:36.059Z,8.68
2022-09-30T05:01:16.883Z,9.85
2022-09-30T05:03:45.758Z,10.57
2022-09-30T05:06:14.494Z,11.13
2022-09-30T05:10:12.390Z,11.50
2022-09-30T05:12:41.022Z,14.95
2022-09-30T05:15:10.370Z,12.70
2022-09-30T05:17:38.666Z,14.98
2022-09-30T05:20:07.360Z,9.48
2022-09-30T05:22:35.472Z,12.10
2022-09-30T05:25:03.724Z,8.93
2022-09-30T05:27:32.025Z,10.13
2022-09-30T05:30:00.025Z,11.45
2022-09-30T05:32:28.162Z,10.18
2022-09-30T05:34:56.872Z,11.70
2022-09-30T05:37:25.227Z,8.30
2022-09-30T05:39:53.325Z,15.15
2022-09-30T05:42:21.563Z,9.52
2022-09-30T05:44:49.723Z,11.23
2022-09-30T05:47:17.742Z,13.07
2022-09-30T05:49:46.120Z,17.40
2022-09-30T05:52:14.239Z,8.77
2022-09-30T05:54:42.333Z,12.68
2022-09-30T05:57:10.635Z,11.73
2022-09-30T05:59:38.827Z,11.35
2022-09-30T06:02:07.495Z,13.73
2022-09-30T06:04:35.744Z,12.65
2022-09-30T06:07:08.215Z,9.55
2022-09-30T06:09:38.703Z,18.00
2022-09-30T06:12:06.951Z,18.02
2022-09-30T06:14:35.556Z,18.13
2022-09-30T06:17:04.092Z,19.95
2022-09-30T06:19:32.413Z,12.30
2022-09-30T06:22:00.687Z,14.93
2022-09-30T06:24:28.873Z,18.63
2022-09-30T06:26:57.159Z,15.35
2022-09-30T06:29:25.318Z,10.70
2022-09-30T06:31:53.556Z,17.35
2022-09-30T06:34:21.846Z,24.45
2022-09-30T06:36:49.958Z,25.13
2022-09-30T06:39:18.096Z,19.40
2022-09-30T06:41:46.299Z,22.80
2022-09-30T06:44:25.665Z,20.15
2022-09-30T06:46:54.727Z,20.38
2022-09-30T06:49:22.983Z,20.42
2022-09-30T06:51:51.397Z,17.00
2022-09-30T06:54:20.018Z,21.30
2022-09-30T06:56:48.706Z,15.20
2022-09-30T06:59:17.351Z,17.98
2022-09-30T07:01:45.596Z,12.73
2022-09-30T07:04:13.696Z,18.00
2022-09-30T07:06:41.956Z,19.95
2022-09-30T07:09:11.550Z,15.20
2022-09-30T07:11:40.002Z,21.60
2022-09-30T07:14:08.918Z,18.00
2022-09-30T07:16:37.791Z,25.30
2022-09-30T07:19:07.261Z,23.35
2022-09-30T07:21:35.674Z,24.13
2022-09-30T07:24:04.022Z,25.30
2022-09-30T07:26:32.407Z,22.50
2022-09-30T07:29:00.755Z,30.48
2022-09-30T07:31:34.548Z,17.10
2022-09-30T07:34:08.353Z,26.13
2022-09-30T07:36:41.079Z,19.65
2022-09-30T07:39:11.279Z,20.95
2022-09-30T07:41:40.887Z,23.60
2022-09-30T07:44:13.446Z,21.63
2022-09-30T07:46:42.797Z,21.55
2022-09-30T07:49:15.252Z,26.77
2022-09-30T07:51:44.011Z,26.25
2022-09-30T07:54:15.930Z,25.05
2022-09-30T07:57:08.711Z,27.20
2022-09-30T07:59:37.954Z,26.20
2022-09-30T08:02:08.206Z,26.48
2022-09-30T08:04:40.337Z,24.13
2022-09-30T08:07:11.929Z,27.55
2022-09-30T08:09:40.054Z,23.17
2022-09-30T08:12:08.436Z,30.40
2022-09-30T08:14:36.712Z,31.40
2022-09-30T08:17:04.871Z,22.30
2022-09-30T08:19:33.132Z,21.45
2022-09-30T08:24:30.040Z,20.45
2022-09-30T08:26:58.810Z,16.60
2022-09-30T08:29:53.209Z,17.98
2022-09-30T08:32:15.519Z,21.00
2022-09-30T08:34:43.716Z,16.80
2022-09-30T08:37:11.900Z,15.73
2022-09-30T08:39:40.386Z,15.85
2022-09-30T08:42:37.174Z,8.75
2022-09-30T08:45:22.054Z,23.83
2022-09-30T08:47:52.972Z,15.57
2022-09-30T08:50:48.669Z,10.98
2022-09-30T08:53:30.736Z,11.43
2022-09-30T08:56:00.675Z,10.80
2022-09-30T08:58:34.849Z,11.60
2022-09-30T09:01:23.301Z,16.10
2022-09-30T09:03:51.739Z,12.00
2022-09-30T09:06:41.330Z,27.23
2022-09-30T09:09:28.404Z,17.35
2022-09-30T09:12:21.549Z,15.15
2022-09-30T09:14:58.425Z,12.73
2022-09-30T09:17:38.584Z,27.40
2022-09-30T09:20:16.887Z,26.05
2022-09-30T09:22:49.312Z,8.32
2022-09-30T09:25:20.467Z,10.60
2022-09-30T09:27:54.608Z,8.80
2022-09-30T09:30:25.036Z,8.00
2022-09-30T09:33:01.191Z,5.53
2022-09-30T09:35:35.177Z,4.43
2022-09-30T09:38:11.147Z,8.07
2022-09-30T09:41:03.583Z,7.07
2022-09-30T09:46:22.018Z,7.03
2022-09-30T09:48:50.711Z,21.20
2022-09-30T09:51:34.253Z,21.15
2022-09-30T09:54:06.171Z,16.92
2022-09-30T09:56:35.424Z,14.52
2022-09-30T10:00:29.714Z,10.25
2022-09-30T10:03:14.368Z,13.55
2022-09-30T10:05:42.740Z,13.65
2022-09-30T10:08:18.296Z,6.63
2022-09-30T10:10:52.742Z,14.98
2022-09-30T10:13:27.529Z,9.00
2022-09-30T10:15:58.714Z,14.73
2022-09-30T10:18:33.840Z,13.18
2022-09-30T10:21:04.053Z,10.27
2022-09-30T10:23:36.586Z,10.52
2022-09-30T10:29:01.465Z,18.10
2022-09-30T10:31:37.509Z,13.63
2022-09-30T10:34:53.252Z,9.32
2022-09-30T10:37:24.303Z,10.85
2022-09-30T10:40:00.254Z,8.55
2022-09-30T10:42:35.271Z,9.38
2022-09-30T10:45:17.206Z,14.65
2022-09-30T10:47:49.227Z,12.75
2022-09-30T10:50:22.012Z,9.30
2022-09-30T10:53:12.213Z,6.97
2022-09-30T10:55:46.045Z,9.93
2022-09-30T10:58:26.411Z,8.85
2022-09-30T11:01:07.739Z,7.45
2022-09-30T11:03:48.511Z,8.98
2022-09-30T11:06:17.194Z,8.38
2022-09-30T11:09:17.960Z,6.30
2022-09-30T11:11:55.748Z,10.15
2022-09-30T11:15:02.867Z,10.00
2022-09-30T11:17:42.754Z,11.07
2022-09-30T11:20:28.795Z,7.20
2022-09-30T11:23:00.206Z,7.85
2022-09-30T11:25:37.626Z,9.05
2022-09-30T11:28:36.328Z,11.48
2022-09-30T11:31:30.853Z,13.73
2022-09-30T11:34:35.920Z,5.95
2022-09-30T11:37:19.723Z,8.10
2022-09-30T11:39:56.547Z,9.88
2022-09-30T11:42:36.836Z,7.13
2022-09-30T11:45:43.636Z,19.80
2022-09-30T11:48:44.465Z,51.00
2022-09-30T11:51:26.279Z,10.05
2022-09-30T11:54:06.839Z,5.07
2022-09-30T11:56:58.315Z,13.10
2022-09-30T11:59:32.636Z,10.10
2022-09-30T12:02:04.863Z,13.30
2022-09-30T12:04:39.848Z,11.63
2022-09-30T12:07:15.581Z,12.77
2022-09-30T12:09:43.858Z,7.13
2022-09-30T12:12:16.697Z,5.97
2022-09-30T12:14:56.367Z,6.80
2022-09-30T12:17:30.448Z,6.18
2022-09-30T12:20:11.536Z,5.05
2022-09-30T12:22:44.883Z,7.22
2022-09-30T12:25:40.209Z,12.80
2022-09-30T12:28:30.161Z,10.68
2022-09-30T12:31:29.066Z,8.75
2022-09-30T12:33:57.343Z,7.78
2022-09-30T12:36:45.984Z,8.38
2022-09-30T12:39:45.380Z,6.95
2022-09-30T12:42:28.264Z,8.27
2022-09-30T12:45:18.518Z,6.10
2022-09-30T12:47:49.063Z,24.05
2022-09-30T12:50:22.537Z,9.88
2022-09-30T12:52:51.199Z,8.95
2022-09-30T12:55:26.594Z,6.70
2022-09-30T12:57:56.223Z,8.70
2022-09-30T13:00:29.153Z,16.90
2022-09-30T13:02:59.810Z,6.03
2022-09-30T13:05:28.273Z,6.72
2022-09-30T13:08:05.713Z,8.23
2022-09-30T13:10:35.562Z,7.85
2022-09-30T13:13:30.756Z,12.05
2022-09-30T13:16:00.287Z,6.97
2022-09-30T13:18:28.492Z,14.45
2022-09-30T13:21:16.725Z,8.15
2022-09-30T13:23:47.298Z,8.05
2022-09-30T13:26:24.779Z,9.95
2022-09-30T13:29:15.931Z,12.98
2022-09-30T13:31:47.387Z,12.63
2022-09-30T13:34:24.612Z,4.90
2022-09-30T13:36:52.909Z,9.70
2022-09-30T13:39:36.214Z,9.35
2022-09-30T13:42:27.757Z,14.35
2022-09-30T13:45:17.922Z,24.55
2022-09-30T13:47:46.285Z,26.92
2022-09-30T13:50:25.206Z,25.85
2022-09-30T13:52:59.234Z,9.73
2022-09-30T13:55:38.856Z,11.80
2022-09-30T13:58:28.561Z,5.85
2022-09-30T14:01:19.717Z,14.73
2022-09-30T14:04:23.000Z,7.82
2022-09-30T14:07:44.587Z,11.27
2022-09-30T14:10:28.557Z,9.77
2022-09-30T14:13:24.397Z,10.30
2022-09-30T14:16:14.285Z,14.32
2022-09-30T14:19:06.850Z,7.00
2022-09-30T14:21:45.442Z,7.80
2022-09-30T14:24:17.799Z,12.45
2022-09-30T14:27:01.181Z,6.13
2022-09-30T14:29:49.941Z,8.48
2022-09-30T14:32:31.038Z,11.15
2022-09-30T14:35:01.595Z,13.00
2022-09-30T14:37:58.446Z,9.60
2022-09-30T14:40:35.751Z,10.68
2022-09-30T14:43:08.199Z,6.95
2022-09-30T14:45:46.151Z,11.88
2022-09-30T14:48:26.316Z,10.93
2022-09-30T14:50:58.949Z,8.60
2022-09-30T14:53:28.986Z,14.05
2022-09-30T14:55:59.779Z,13.35
2022-09-30T14:58:30.698Z,10.02
2022-09-30T15:01:08.875Z,9.27
2022-09-30T15:03:45.646Z,9.70
2022-09-30T15:06:24.343Z,13.00
2022-09-30T15:09:01.176Z,12.20
2022-09-30T15:11:30.213Z,9.20
2022-09-30T15:14:19.600Z,9.65
2022-09-30T15:17:01.443Z,4.68
2022-09-30T15:19:44.316Z,6.55
2022-09-30T15:22:14.708Z,8.85
2022-09-30T15:24:44.010Z,9.25
2022-09-30T15:27:36.479Z,15.93
2022-09-30T15:30:16.780Z,8.13
2022-09-30T15:32:46.092Z,14.30
2022-09-30T15:35:20.363Z,15.50
2022-09-30T15:37:49.471Z,15.73
2022-09-30T15:40:23.847Z,13.32
2022-09-30T15:43:01.766Z,15.50
2022-09-30T15:45:43.496Z,22.70
2022-09-30T15:48:17.726Z,8.43
2022-09-30T15:50:49.003Z,14.80
2022-09-30T15:53:22.854Z,12.63
2022-09-30T15:55:57.185Z,13.20
2022-09-30T15:58:41.216Z,7.78
2022-09-30T16:01:20.234Z,8.18
2022-09-30T16:03:56.837Z,9.27
2022-09-30T16:06:30.046Z,8.57
2022-09-30T16:09:08.168Z,21.85
2022-09-30T16:11:41.100Z,9.38
2022-09-30T16:14:20.086Z,9.50
2022-09-30T16:16:55.249Z,13.70
2022-09-30T16:19:24.841Z,7.03
2022-09-30T16:21:54.124Z,12.63
2022-09-30T16:24:25.151Z,14.25
2022-09-30T16:26:58.518Z,15.35
2022-09-30T16:29:27.887Z,9.35
2022-09-30T16:31:57.503Z,10.45
2022-09-30T16:34:28.378Z,12.57
2022-09-30T16:37:05.866Z,19.52
2022-09-30T16:39:34.123Z,17.52
2022-09-30T16:42:02.252Z,15.55
2022-09-30T16:44:30.961Z,8.50
2022-09-30T16:46:59.022Z,14.05
2022-09-30T16:49:27.491Z,7.65
2022-09-30T16:51:55.753Z,15.63
2022-09-30T16:54:23.905Z,10.40
2022-09-30T16:56:52.332Z,10.45
2022-09-30T16:59:20.463Z,15.20
2022-09-30T17:01:48.822Z,10.07
2022-09-30T17:04:17.324Z,9.98
2022-09-30T17:06:45.685Z,14.85
2022-09-30T17:09:13.860Z,13.18
2022-09-30T17:11:42.054Z,20.77
2022-09-30T17:14:10.356Z,19.55
2022-09-30T17:16:38.598Z,9.90
2022-09-30T17:19:06.755Z,21.38
2022-09-30T17:21:35.029Z,19.33
2022-09-30T17:24:03.346Z,19.67
2022-09-30T17:26:31.830Z,18.20
2022-09-30T17:29:31.434Z,10.27
2022-09-30T17:31:48.909Z,12.30
2022-09-30T17:34:17.218Z,9.38
2022-09-30T17:36:45.300Z,9.95
2022-09-30T17:39:13.655Z,13.63
2022-09-30T17:41:41.940Z,10.38
2022-09-30T17:44:09.994Z,8.18
2022-09-30T17:46:46.239Z,10.98
2022-09-30T17:49:15.283Z,8.10
2022-09-30T17:51:43.506Z,22.00
2022-09-30T17:54:11.766Z,25.33
2022-09-30T17:56:39.913Z,19.45
2022-09-30T17:59:08.193Z,34.20
2022-09-30T18:01:36.462Z,50.22
2022-09-30T18:04:05.078Z,52.13
2022-09-30T18:06:33.306Z,57.25
2022-09-30T18:09:01.608Z,59.95
2022-09-30T18:11:29.898Z,23.88
2022-09-30T18:14:00.020Z,25.27
2022-09-30T18:16:31.095Z,19.65
2022-09-30T18:19:04.250Z,11.43
2022-09-30T18:21:34.613Z,9.18
2022-09-30T18:24:04.207Z,17.27
2022-09-30T18:26:35.636Z,10.77
2022-09-30T18:29:05.185Z,16.63
2022-09-30T18:31:33.608Z,22.63
2022-09-30T18:34:02.783Z,20.08
2022-09-30T18:36:31.237Z,13.70
2022-09-30T18:39:00.826Z,21.42
2022-09-30T18:41:30.503Z,14.52
2022-09-30T18:45:59.145Z,18.10
2022-09-30T18:48:27.405Z,18.58
2022-09-30T18:51:02.060Z,14.60
2022-09-30T18:53:34.422Z,17.83
2022-09-30T18:56:04.482Z,21.88
2022-09-30T18:58:32.675Z,17.05
2022-09-30T19:01:04.635Z,11.65
2022-09-30T19:03:33.606Z,15.48
2022-09-30T19:06:08.320Z,21.60
2022-09-30T19:08:36.730Z,20.25
2022-09-30T19:11:12.686Z,15.98
2022-09-30T19:13:42.983Z,15.93
2022-09-30T19:16:11.941Z,15.95
2022-09-30T19:18:41.358Z,20.27
2022-09-30T19:21:12.008Z,18.27
2022-09-30T19:23:40.978Z,19.38
2022-09-30T19:26:10.065Z,21.38
2022-09-30T19:28:38.119Z,23.48
2022-09-30T19:31:14.289Z,23.13
2022-09-30T19:33:53.812Z,32.60
2022-09-30T19:36:26.078Z,20.08
2022-09-30T19:39:07.134Z,20.80
2022-09-30T19:41:37.973Z,27.42
2022-09-30T19:44:06.278Z,24.75
2022-09-30T19:46:34.703Z,21.70
2022-09-30T19:49:02.826Z,16.17
2022-09-30T19:51:31.502Z,18.08
2022-09-30T19:54:06.939Z,23.65
2022-09-30T19:56:37.131Z,17.52
2022-09-30T19:59:05.826Z,30.75
2022-09-30T20:01:34.241Z,28.17
2022-09-30T20:04:03.114Z,28.55
2022-09-30T20:06:32.351Z,18.75
2022-09-30T20:09:01.118Z,20.95
2022-09-30T20:11:34.426Z,22.90
2022-09-30T20:14:05.326Z,25.55
2022-09-30T20:16:33.774Z,32.13
2022-09-30T20:19:01.904Z,26.15
2022-09-30T20:21:30.465Z,23.35
2022-09-30T20:23:58.976Z,18.67
2022-09-30T20:26:27.512Z,13.57
2022-09-30T20:28:59.513Z,8.90
2022-09-30T20:31:28.828Z,13.15
2022-09-30T20:34:00.903Z,13.32
2022-09-30T20:36:30.629Z,20.50
2022-09-30T20:39:03.610Z,21.73
2022-09-30T20:41:34.374Z,14.45
2022-09-30T20:44:07.855Z,16.98
2022-09-30T20:46:36.165Z,15.38
2022-09-30T20:49:05.125Z,15.25
2022-09-30T20:51:33.700Z,18.15
2022-09-30T20:54:02.158Z,15.30
2022-09-30T20:56:44.413Z,19.75
2022-09-30T20:59:19.307Z,17.88
2022-09-30T21:01:47.556Z,19.88
2022-09-30T21:04:15.776Z,20.05
2022-09-30T21:06:43.949Z,22.73
2022-09-30T21:09:13.310Z,24.00
2022-09-30T21:11:41.610Z,22.83
2022-09-30T21:14:09.757Z,33.00
2022-09-30T21:16:37.924Z,25.00
2022-09-30T21:19:06.372Z,16.45
2022-09-30T21:21:35.015Z,16.63
2022-09-30T21:24:03.546Z,16.35
2022-09-30T21:26:31.853Z,15.02
2022-09-30T21:29:00.082Z,15.95
2022-09-30T21:31:29.116Z,10.52
2022-09-30T21:33:59.175Z,11.23
2022-09-30T21:36:28.940Z,18.92
2022-09-30T21:39:01.633Z,16.35
2022-09-30T21:41:31.058Z,19.23
2022-09-30T21:44:00.173Z,19.52
2022-09-30T21:46:28.690Z,25.02
2022-09-30T21:49:17.306Z,21.77
2022-09-30T21:51:45.927Z,23.70
2022-09-30T21:54:14.522Z,19.27
2022-09-30T21:56:43.269Z,17.88
2022-09-30T21:59:13.002Z,22.65
2022-09-30T22:01:41.724Z,22.88
2022-09-30T22:04:10.270Z,21.73
2022-09-30T22:06:38.433Z,20.65
2022-09-30T22:09:06.676Z,22.50
2022-09-30T22:11:35.001Z,19.02
2022-09-30T22:14:03.518Z,19.20
2022-09-30T22:16:33.769Z,24.50
2022-09-30T22:19:06.816Z,22.50
2022-09-30T22:21:37.018Z,22.10
2022-09-30T22:24:06.962Z,29.17
2022-09-30T22:26:35.644Z,22.42
2022-09-30T22:29:06.926Z,23.10
2022-09-30T22:31:35.825Z,13.82
2022-09-30T22:34:07.067Z,16.85
2022-09-30T22:36:35.907Z,15.07
2022-09-30T22:39:04.159Z,11.63
2022-09-30T22:41:32.389Z,16.70
2022-09-30T22:44:00.994Z,15.73
2022-09-30T22:46:29.175Z,16.42
2022-09-30T22:48:57.433Z,16.05
2022-09-30T22:51:26.098Z,14.35
2022-09-30T22:53:54.398Z,13.23
2022-09-30T22:56:23.750Z,19.08
2022-09-30T22:58:52.026Z,19.70
2022-09-30T23:01:20.387Z,15.48
2022-09-30T23:03:52.411Z,14.10
2022-09-30T23:06:21.169Z,14.45
2022-09-30T23:08:50.116Z,14.57
2022-09-30T23:11:19.174Z,17.02
2022-09-30T23:13:47.684Z,18.25
2022-09-30T23:16:17.277Z,16.35
2022-09-30T23:18:45.514Z,18.85
2022-09-30T23:21:17.188Z,13.60
2022-09-30T23:23:46.666Z,12.77
2022-09-30T23:26:17.824Z,12.80
2022-09-30T23:28:46.738Z,11.55
2022-09-30T23:31:17.747Z,14.55
2022-09-30T23:33:48.619Z,15.23
2022-09-30T23:36:22.429Z,9.98
2022-09-30T23:38:50.678Z,20.42
2022-09-30T23:41:18.805Z,16.17
2022-09-30T23:43:47.239Z,10.48
2022-09-30T23:46:17.024Z,11.13
2022-09-30T23:48:45.352Z,16.35
2022-09-30T23:51:14.557Z,13.20
2022-09-30T23:53:42.863Z,15.43
2022-09-30T23:56:16.085Z,12.40
2022-09-30T23:58:45.081Z,12.18
